sensor_id;sensor_type;location;lat;lon;timestamp;temperature;humidity
41694;DHT22;27377;50.666;9.150;2022-10-14T00:01:04;11.70;99.90
41694;DHT22;27377;50.666;9.150;2022-10-14T00:03:29;11.70;99.90
41694;DHT22;27377;50.666;9.150;2022-10-14T00:05:55;11.70;99.90
41694;DHT22;27377;50.666;9.150;2022-10-14T00:08:21;11.70;99.90
41694;DHT22;27377;50.666;9.150;2022-10-14T00:10:46;11.70;99.90
41694;DHT22;27377;50.666;9.150;2022-10-14T00:13:12;11.70;99.90
41694;DHT22;27377;50.666;9.150;2022-10-14T00:15:39;11.70;99.90
41694;DHT22;27377;50.666;9.150;2022-10-14T00:18:06;11.70;99.90
41694;DHT22;27377;50.666;9.150;2022-10-14T00:20:32;11.80;99.90
41694;DHT22;27377;50.666;9.150;2022-10-14T00:22:58;11.70;99.90
41694;DHT22;27377;50.666;9.150;2022-10-14T00:25:24;11.70;99.90
41694;DHT22;27377;50.666;9.150;2022-10-14T00:27:51;11.70;99.90
41694;DHT22;27377;50.666;9.150;2022-10-14T00:30:17;11.70;99.90
41694;DHT22;27377;50.666;9.150;2022-10-14T00:32:43;11.70;99.90
41694;DHT22;27377;50.666;9.150;2022-10-14T00:35:09;11.70;99.90
41694;DHT22;27377;50.666;9.150;2022-10-14T00:37:34;11.70;99.90
41694;DHT22;27377;50.666;9.150;2022-10-14T00:40:00;11.70;99.90
41694;DHT22;27377;50.666;9.150;2022-10-14T00:42:26;11.70;99.90
41694;DHT22;27377;50.666;9.150;2022-10-14T00:45:02;11.70;99.90
41694;DHT22;27377;50.666;9.150;2022-10-14T00:47:28;11.70;99.90
41694;DHT22;27377;50.666;9.150;2022-10-14T00:49:55;11.70;99.90
41694;DHT22;27377;50.666;9.150;2022-10-14T00:52:22;11.70;99.90
41694;DHT22;27377;50.666;9.150;2022-10-14T00:55:05;11.70;99.90
41694;DHT22;27377;50.666;9.150;2022-10-14T00:57:31;11.70;99.90
41694;DHT22;27377;50.666;9.150;2022-10-14T01:00:09;11.70;99.90
41694;DHT22;27377;50.666;9.150;2022-10-14T01:02:35;11.70;99.90
41694;DHT22;27377;50.666;9.150;2022-10-14T01:05:02;11.70;99.90
41694;DHT22;27377;50.666;9.150;2022-10-14T01:07:49;11.70;99.90
41694;DHT22;27377;50.666;9.150;2022-10-14T01:10:40;11.70;99.90
41694;DHT22;27377;50.666;9.150;2022-10-14T01:19:08;11.70;99.90
41694;DHT22;27377;50.666;9.150;2022-10-14T01:21:55;11.70;99.90
41694;DHT22;27377;50.666;9.150;2022-10-14T01:27:17;11.70;99.90
41694;DHT22;27377;50.666;9.150;2022-10-14T01:32:23;11.70;99.90
41694;DHT22;27377;50.666;9.150;2022-10-14T01:35:02;11.70;99.90
41694;DHT22;27377;50.666;9.150;2022-10-14T01:37:30;11.70;99.90
41694;DHT22;27377;50.666;9.150;2022-10-14T01:40:04;11.70;99.90
41694;DHT22;27377;50.666;9.150;2022-10-14T01:42:34;11.70;99.90
41694;DHT22;27377;50.666;9.150;2022-10-14T01:45:08;11.70;99.90
41694;DHT22;27377;50.666;9.150;2022-10-14T01:47:35;11.70;99.90
41694;DHT22;27377;50.666;9.150;2022-10-14T01:50:17;11.70;99.90
41694;DHT22;27377;50.666;9.150;2022-10-14T01:52:53;11.70;99.90
41694;DHT22;27377;50.666;9.150;2022-10-14T01:55:23;11.70;99.90
41694;DHT22;27377;50.666;9.150;2022-10-14T01:57:51;11.70;99.90
41694;DHT22;27377;50.666;9.150;2022-10-14T02:00:17;11.70;99.90
41694;DHT22;27377;50.666;9.150;2022-10-14T02:02:43;11.70;99.90
41694;DHT22;27377;50.666;9.150;2022-10-14T02:05:31;11.70;99.90
41694;DHT22;27377;50.666;9.150;2022-10-14T02:08:26;11.70;99.90
41694;DHT22;27377;50.666;9.150;2022-10-14T02:10:58;11.70;99.90
41694;DHT22;27377;50.666;9.150;2022-10-14T02:16:35;11.70;99.90
41694;DHT22;27377;50.666;9.150;2022-10-14T02:21:47;11.70;99.90
41694;DHT22;27377;50.666;9.150;2022-10-14T02:24:30;11.70;99.90
41694;DHT22;27377;50.666;9.150;2022-10-14T02:27:01;11.70;99.90
41694;DHT22;27377;50.666;9.150;2022-10-14T02:29:29;11.70;99.90
41694;DHT22;27377;50.666;9.150;2022-10-14T02:31:56;11.70;99.90
41694;DHT22;27377;50.666;9.150;2022-10-14T02:34:24;11.70;99.90
41694;DHT22;27377;50.666;9.150;2022-10-14T02:36:51;11.70;99.90
41694;DHT22;27377;50.666;9.150;2022-10-14T02:39:26;11.70;99.90
41694;DHT22;27377;50.666;9.150;2022-10-14T02:41:52;11.70;99.90
41694;DHT22;27377;50.666;9.150;2022-10-14T02:44:18;11.70;99.90
41694;DHT22;27377;50.666;9.150;2022-10-14T02:46:44;11.70;99.90
41694;DHT22;27377;50.666;9.150;2022-10-14T02:49:09;11.70;99.90
41694;DHT22;27377;50.666;9.150;2022-10-14T02:51:35;11.70;99.90
41694;DHT22;27377;50.666;9.150;2022-10-14T02:54:00;11.70;99.90
41694;DHT22;27377;50.666;9.150;2022-10-14T02:56:26;11.70;99.90
41694;DHT22;27377;50.666;9.150;2022-10-14T02:58:52;11.70;99.90
41694;DHT22;27377;50.666;9.150;2022-10-14T03:01:19;11.80;99.90
41694;DHT22;27377;50.666;9.150;2022-10-14T03:03:45;11.70;99.90
41694;DHT22;27377;50.666;9.150;2022-10-14T03:06:10;11.70;99.90
41694;DHT22;27377;50.666;9.150;2022-10-14T03:08:36;11.70;99.90
41694;DHT22;27377;50.666;9.150;2022-10-14T03:11:02;11.70;99.90
41694;DHT22;27377;50.666;9.150;2022-10-14T03:13:27;11.80;99.90
41694;DHT22;27377;50.666;9.150;2022-10-14T03:15:53;11.80;99.90
41694;DHT22;27377;50.666;9.150;2022-10-14T03:18:18;11.70;99.90
41694;DHT22;27377;50.666;9.150;2022-10-14T03:20:45;11.80;99.90
41694;DHT22;27377;50.666;9.150;2022-10-14T03:23:11;11.80;99.90
41694;DHT22;27377;50.666;9.150;2022-10-14T03:25:37;11.70;99.90
41694;DHT22;27377;50.666;9.150;2022-10-14T03:28:03;11.80;99.90
41694;DHT22;27377;50.666;9.150;2022-10-14T03:30:29;11.80;99.90
41694;DHT22;27377;50.666;9.150;2022-10-14T03:32:54;11.80;99.90
41694;DHT22;27377;50.666;9.150;2022-10-14T03:35:20;11.80;99.90
41694;DHT22;27377;50.666;9.150;2022-10-14T03:37:46;11.80;99.90
41694;DHT22;27377;50.666;9.150;2022-10-14T03:40:12;11.80;99.90
41694;DHT22;27377;50.666;9.150;2022-10-14T03:42:37;11.80;99.90
41694;DHT22;27377;50.666;9.150;2022-10-14T03:45:03;11.80;99.90
41694;DHT22;27377;50.666;9.150;2022-10-14T03:47:29;11.80;99.90
41694;DHT22;27377;50.666;9.150;2022-10-14T03:49:55;11.80;99.90
41694;DHT22;27377;50.666;9.150;2022-10-14T03:52:20;11.80;99.90
41694;DHT22;27377;50.666;9.150;2022-10-14T03:54:46;11.80;99.90
41694;DHT22;27377;50.666;9.150;2022-10-14T03:57:11;11.80;99.90
41694;DHT22;27377;50.666;9.150;2022-10-14T03:59:37;11.80;99.90
41694;DHT22;27377;50.666;9.150;2022-10-14T04:02:03;11.80;99.90
41694;DHT22;27377;50.666;9.150;2022-10-14T04:04:29;11.80;99.90
41694;DHT22;27377;50.666;9.150;2022-10-14T04:06:55;11.80;99.90
41694;DHT22;27377;50.666;9.150;2022-10-14T04:09:22;11.80;99.90
41694;DHT22;27377;50.666;9.150;2022-10-14T04:11:47;11.80;99.90
41694;DHT22;27377;50.666;9.150;2022-10-14T04:14:13;11.80;99.90
41694;DHT22;27377;50.666;9.150;2022-10-14T04:16:39;11.80;99.90
41694;DHT22;27377;50.666;9.150;2022-10-14T04:19:05;11.80;99.90
41694;DHT22;27377;50.666;9.150;2022-10-14T04:21:33;11.80;99.90
41694;DHT22;27377;50.666;9.150;2022-10-14T04:23:58;11.80;99.90
41694;DHT22;27377;50.666;9.150;2022-10-14T04:26:24;11.80;99.90
41694;DHT22;27377;50.666;9.150;2022-10-14T04:28:49;11.80;99.90
41694;DHT22;27377;50.666;9.150;2022-10-14T04:31:15;11.80;99.90
41694;DHT22;27377;50.666;9.150;2022-10-14T04:33:41;11.80;99.90
41694;DHT22;27377;50.666;9.150;2022-10-14T04:36:07;11.80;99.90
41694;DHT22;27377;50.666;9.150;2022-10-14T04:38:32;11.80;99.90
41694;DHT22;27377;50.666;9.150;2022-10-14T04:40:58;11.80;99.90
41694;DHT22;27377;50.666;9.150;2022-10-14T04:43:24;11.80;99.90
41694;DHT22;27377;50.666;9.150;2022-10-14T04:45:50;11.80;99.90
41694;DHT22;27377;50.666;9.150;2022-10-14T04:48:16;11.80;99.90
41694;DHT22;27377;50.666;9.150;2022-10-14T04:50:42;11.80;99.90
41694;DHT22;27377;50.666;9.150;2022-10-14T04:53:08;11.80;99.90
41694;DHT22;27377;50.666;9.150;2022-10-14T04:55:33;11.80;99.90
41694;DHT22;27377;50.666;9.150;2022-10-14T04:57:59;11.80;99.90
41694;DHT22;27377;50.666;9.150;2022-10-14T05:00:24;11.80;99.90
41694;DHT22;27377;50.666;9.150;2022-10-14T05:02:50;11.70;99.90
41694;DHT22;27377;50.666;9.150;2022-10-14T05:05:16;11.70;99.90
41694;DHT22;27377;50.666;9.150;2022-10-14T05:07:41;11.70;99.90
41694;DHT22;27377;50.666;9.150;2022-10-14T05:10:08;11.70;99.90
41694;DHT22;27377;50.666;9.150;2022-10-14T05:12:37;11.70;99.90
41694;DHT22;27377;50.666;9.150;2022-10-14T05:15:04;11.70;99.90
41694;DHT22;27377;50.666;9.150;2022-10-14T05:17:31;11.70;99.90
41694;DHT22;27377;50.666;9.150;2022-10-14T05:19:57;11.70;99.90
41694;DHT22;27377;50.666;9.150;2022-10-14T05:22:23;11.70;99.90
41694;DHT22;27377;50.666;9.150;2022-10-14T05:24:49;11.70;99.90
41694;DHT22;27377;50.666;9.150;2022-10-14T05:27:15;11.70;99.90
41694;DHT22;27377;50.666;9.150;2022-10-14T05:29:41;11.70;99.90
41694;DHT22;27377;50.666;9.150;2022-10-14T05:32:06;11.70;99.90
41694;DHT22;27377;50.666;9.150;2022-10-14T05:34:32;11.70;99.90
41694;DHT22;27377;50.666;9.150;2022-10-14T05:36:59;11.70;99.90
41694;DHT22;27377;50.666;9.150;2022-10-14T05:39:24;11.70;99.90
41694;DHT22;27377;50.666;9.150;2022-10-14T05:41:50;11.70;99.90
41694;DHT22;27377;50.666;9.150;2022-10-14T05:44:15;11.70;99.90
41694;DHT22;27377;50.666;9.150;2022-10-14T05:46:41;11.70;99.90
41694;DHT22;27377;50.666;9.150;2022-10-14T05:49:06;11.70;99.90
41694;DHT22;27377;50.666;9.150;2022-10-14T05:51:32;11.70;99.90
41694;DHT22;27377;50.666;9.150;2022-10-14T05:53:58;11.70;99.90
41694;DHT22;27377;50.666;9.150;2022-10-14T05:56:24;11.70;99.90
41694;DHT22;27377;50.666;9.150;2022-10-14T05:58:50;11.70;99.90
41694;DHT22;27377;50.666;9.150;2022-10-14T06:01:15;11.70;99.90
41694;DHT22;27377;50.666;9.150;2022-10-14T06:03:41;11.70;99.90
41694;DHT22;27377;50.666;9.150;2022-10-14T06:06:12;11.70;99.90
41694;DHT22;27377;50.666;9.150;2022-10-14T06:08:38;11.70;99.90
41694;DHT22;27377;50.666;9.150;2022-10-14T06:11:04;11.70;99.90
41694;DHT22;27377;50.666;9.150;2022-10-14T06:13:30;11.70;99.90
41694;DHT22;27377;50.666;9.150;2022-10-14T06:15:55;11.70;99.90
41694;DHT22;27377;50.666;9.150;2022-10-14T06:18:21;11.70;99.90
41694;DHT22;27377;50.666;9.150;2022-10-14T06:20:53;11.70;99.90
41694;DHT22;27377;50.666;9.150;2022-10-14T06:23:19;11.70;99.90
41694;DHT22;27377;50.666;9.150;2022-10-14T06:25:45;11.70;99.90
41694;DHT22;27377;50.666;9.150;2022-10-14T06:28:11;11.70;99.90
41694;DHT22;27377;50.666;9.150;2022-10-14T06:30:36;11.70;99.90
41694;DHT22;27377;50.666;9.150;2022-10-14T06:33:02;11.70;99.90
41694;DHT22;27377;50.666;9.150;2022-10-14T06:35:27;11.70;99.90
41694;DHT22;27377;50.666;9.150;2022-10-14T06:37:53;11.80;99.90
41694;DHT22;27377;50.666;9.150;2022-10-14T06:40:19;11.70;99.90
41694;DHT22;27377;50.666;9.150;2022-10-14T06:42:44;11.70;99.90
41694;DHT22;27377;50.666;9.150;2022-10-14T06:45:10;11.80;99.90
41694;DHT22;27377;50.666;9.150;2022-10-14T06:47:35;11.80;99.90
41694;DHT22;27377;50.666;9.150;2022-10-14T06:50:01;11.80;99.90
41694;DHT22;27377;50.666;9.150;2022-10-14T06:52:27;11.80;99.90
41694;DHT22;27377;50.666;9.150;2022-10-14T06:54:52;11.80;99.90
41694;DHT22;27377;50.666;9.150;2022-10-14T06:57:18;11.80;99.90
41694;DHT22;27377;50.666;9.150;2022-10-14T06:59:43;11.80;99.90
41694;DHT22;27377;50.666;9.150;2022-10-14T07:02:09;11.80;99.90
41694;DHT22;27377;50.666;9.150;2022-10-14T07:04:35;11.80;99.90
41694;DHT22;27377;50.666;9.150;2022-10-14T07:07:00;11.80;99.90
41694;DHT22;27377;50.666;9.150;2022-10-14T07:09:27;11.80;99.90
41694;DHT22;27377;50.666;9.150;2022-10-14T07:11:53;11.80;99.90
41694;DHT22;27377;50.666;9.150;2022-10-14T07:14:21;11.90;99.90
41694;DHT22;27377;50.666;9.150;2022-10-14T07:16:47;11.80;99.90
41694;DHT22;27377;50.666;9.150;2022-10-14T07:19:13;11.80;99.90
41694;DHT22;27377;50.666;9.150;2022-10-14T07:21:38;11.90;99.90
41694;DHT22;27377;50.666;9.150;2022-10-14T07:24:05;11.90;99.90
41694;DHT22;27377;50.666;9.150;2022-10-14T07:26:31;11.90;99.90
41694;DHT22;27377;50.666;9.150;2022-10-14T07:28:56;11.90;99.90
41694;DHT22;27377;50.666;9.150;2022-10-14T07:31:22;11.90;99.90
41694;DHT22;27377;50.666;9.150;2022-10-14T07:33:48;11.90;99.90
41694;DHT22;27377;50.666;9.150;2022-10-14T07:36:16;11.90;99.90
41694;DHT22;27377;50.666;9.150;2022-10-14T07:38:42;11.90;99.90
41694;DHT22;27377;50.666;9.150;2022-10-14T07:41:11;11.90;99.90
41694;DHT22;27377;50.666;9.150;2022-10-14T07:43:46;11.90;99.90
41694;DHT22;27377;50.666;9.150;2022-10-14T07:46:13;12.00;99.90
41694;DHT22;27377;50.666;9.150;2022-10-14T07:48:39;12.00;99.90
41694;DHT22;27377;50.666;9.150;2022-10-14T07:51:06;12.00;99.90
41694;DHT22;27377;50.666;9.150;2022-10-14T07:53:32;12.00;99.90
41694;DHT22;27377;50.666;9.150;2022-10-14T07:55:58;12.00;99.90
41694;DHT22;27377;50.666;9.150;2022-10-14T07:58:26;12.10;99.90
41694;DHT22;27377;50.666;9.150;2022-10-14T08:00:52;12.10;99.90
41694;DHT22;27377;50.666;9.150;2022-10-14T08:03:19;12.10;99.90
41694;DHT22;27377;50.666;9.150;2022-10-14T08:05:45;12.10;99.90
41694;DHT22;27377;50.666;9.150;2022-10-14T08:08:12;12.10;99.90
41694;DHT22;27377;50.666;9.150;2022-10-14T08:10:38;12.10;99.90
41694;DHT22;27377;50.666;9.150;2022-10-14T08:13:04;12.10;99.90
41694;DHT22;27377;50.666;9.150;2022-10-14T08:15:38;12.10;99.90
41694;DHT22;27377;50.666;9.150;2022-10-14T08:18:06;12.10;99.90
41694;DHT22;27377;50.666;9.150;2022-10-14T08:20:32;12.10;99.90
41694;DHT22;27377;50.666;9.150;2022-10-14T08:22:58;12.10;99.90
41694;DHT22;27377;50.666;9.150;2022-10-14T08:25:24;12.20;99.90
41694;DHT22;27377;50.666;9.150;2022-10-14T08:27:50;12.20;99.90
41694;DHT22;27377;50.666;9.150;2022-10-14T08:30:16;12.20;99.90
41694;DHT22;27377;50.666;9.150;2022-10-14T08:32:42;12.20;99.90
41694;DHT22;27377;50.666;9.150;2022-10-14T08:35:08;12.20;99.90
41694;DHT22;27377;50.666;9.150;2022-10-14T08:37:34;12.20;99.90
41694;DHT22;27377;50.666;9.150;2022-10-14T08:40:00;12.20;99.90
41694;DHT22;27377;50.666;9.150;2022-10-14T08:45:16;12.30;99.90
41694;DHT22;27377;50.666;9.150;2022-10-14T08:47:44;12.20;99.90
41694;DHT22;27377;50.666;9.150;2022-10-14T08:50:33;12.20;99.90
41694;DHT22;27377;50.666;9.150;2022-10-14T08:53:11;12.30;99.90
41694;DHT22;27377;50.666;9.150;2022-10-14T08:55:38;12.30;99.90
41694;DHT22;27377;50.666;9.150;2022-10-14T08:58:24;12.30;99.90
41694;DHT22;27377;50.666;9.150;2022-10-14T09:00:53;12.30;99.90
41694;DHT22;27377;50.666;9.150;2022-10-14T09:03:25;12.30;99.90
41694;DHT22;27377;50.666;9.150;2022-10-14T09:06:03;12.30;99.90
41694;DHT22;27377;50.666;9.150;2022-10-14T09:08:36;12.30;99.90
41694;DHT22;27377;50.666;9.150;2022-10-14T09:11:13;12.30;99.90
41694;DHT22;27377;50.666;9.150;2022-10-14T09:13:41;12.40;99.90
41694;DHT22;27377;50.666;9.150;2022-10-14T09:16:23;12.40;99.90
41694;DHT22;27377;50.666;9.150;2022-10-14T09:18:52;12.40;99.90
41694;DHT22;27377;50.666;9.150;2022-10-14T09:21:29;12.40;99.90
41694;DHT22;27377;50.666;9.150;2022-10-14T09:24:53;12.50;99.90
41694;DHT22;27377;50.666;9.150;2022-10-14T09:27:04;12.50;99.90
41694;DHT22;27377;50.666;9.150;2022-10-14T09:29:45;12.50;99.90
41694;DHT22;27377;50.666;9.150;2022-10-14T09:34:58;12.50;99.90
41694;DHT22;27377;50.666;9.150;2022-10-14T09:37:35;12.50;99.90
41694;DHT22;27377;50.666;9.150;2022-10-14T09:40:19;12.60;99.90
41694;DHT22;27377;50.666;9.150;2022-10-14T09:45:54;12.60;99.90
41694;DHT22;27377;50.666;9.150;2022-10-14T09:53:52;12.60;99.90
41694;DHT22;27377;50.666;9.150;2022-10-14T09:56:35;12.60;99.90
41694;DHT22;27377;50.666;9.150;2022-10-14T09:59:03;12.60;99.90
41694;DHT22;27377;50.666;9.150;2022-10-14T10:01:38;12.70;99.90
41694;DHT22;27377;50.666;9.150;2022-10-14T10:04:35;12.70;99.90
41694;DHT22;27377;50.666;9.150;2022-10-14T10:07:05;12.70;99.90
41694;DHT22;27377;50.666;9.150;2022-10-14T10:09:31;12.70;99.90
41694;DHT22;27377;50.666;9.150;2022-10-14T10:11:57;12.70;99.90
41694;DHT22;27377;50.666;9.150;2022-10-14T10:14:31;12.70;99.90
41694;DHT22;27377;50.666;9.150;2022-10-14T10:19:37;12.70;99.90
41694;DHT22;27377;50.666;9.150;2022-10-14T10:22:23;12.70;99.90
41694;DHT22;27377;50.666;9.150;2022-10-14T10:27:37;12.70;99.90
41694;DHT22;27377;50.666;9.150;2022-10-14T10:33:00;12.70;99.90
41694;DHT22;27377;50.666;9.150;2022-10-14T10:35:56;12.70;99.90
41694;DHT22;27377;50.666;9.150;2022-10-14T10:38:32;12.70;99.90
41694;DHT22;27377;50.666;9.150;2022-10-14T10:46:22;12.70;99.90
41694;DHT22;27377;50.666;9.150;2022-10-14T10:51:44;12.80;99.90
41694;DHT22;27377;50.666;9.150;2022-10-14T10:54:43;12.80;99.90
41694;DHT22;27377;50.666;9.150;2022-10-14T11:00:16;12.80;99.90
41694;DHT22;27377;50.666;9.150;2022-10-14T11:06:13;12.80;99.90
41694;DHT22;27377;50.666;9.150;2022-10-14T11:09:07;12.80;99.90
41694;DHT22;27377;50.666;9.150;2022-10-14T11:12:19;12.80;99.90
41694;DHT22;27377;50.666;9.150;2022-10-14T11:15:08;12.80;99.90
41694;DHT22;27377;50.666;9.150;2022-10-14T11:20:49;12.80;99.90
41694;DHT22;27377;50.666;9.150;2022-10-14T11:23:37;12.80;99.90
41694;DHT22;27377;50.666;9.150;2022-10-14T11:26:18;12.80;99.90
41694;DHT22;27377;50.666;9.150;2022-10-14T11:31:55;12.80;99.90
41694;DHT22;27377;50.666;9.150;2022-10-14T11:37:32;12.90;99.90
41694;DHT22;27377;50.666;9.150;2022-10-14T11:42:44;12.90;99.90
41694;DHT22;27377;50.666;9.150;2022-10-14T11:45:40;12.90;99.90
41694;DHT22;27377;50.666;9.150;2022-10-14T11:50:56;13.00;99.90
41694;DHT22;27377;50.666;9.150;2022-10-14T11:53:56;13.00;99.90
41694;DHT22;27377;50.666;9.150;2022-10-14T11:56:29;13.00;99.90
41694;DHT22;27377;50.666;9.150;2022-10-14T11:59:02;13.10;99.90
41694;DHT22;27377;50.666;9.150;2022-10-14T12:01:43;13.10;99.90
41694;DHT22;27377;50.666;9.150;2022-10-14T12:04:17;13.10;99.90
41694;DHT22;27377;50.666;9.150;2022-10-14T12:06:51;13.10;99.90
41694;DHT22;27377;50.666;9.150;2022-10-14T12:09:35;13.10;99.90
41694;DHT22;27377;50.666;9.150;2022-10-14T12:12:11;13.20;99.90
41694;DHT22;27377;50.666;9.150;2022-10-14T12:15:14;13.20;99.90
41694;DHT22;27377;50.666;9.150;2022-10-14T12:17:52;13.10;99.90
41694;DHT22;27377;50.666;9.150;2022-10-14T12:23:13;13.10;99.90
41694;DHT22;27377;50.666;9.150;2022-10-14T12:25:49;13.20;99.90
41694;DHT22;27377;50.666;9.150;2022-10-14T12:28:18;13.20;99.90
41694;DHT22;27377;50.666;9.150;2022-10-14T12:30:45;13.20;99.90
41694;DHT22;27377;50.666;9.150;2022-10-14T12:33:13;13.20;99.90
41694;DHT22;27377;50.666;9.150;2022-10-14T12:36:17;13.20;99.90
41694;DHT22;27377;50.666;9.150;2022-10-14T12:41:41;13.20;99.90
41694;DHT22;27377;50.666;9.150;2022-10-14T12:44:14;13.20;99.90
41694;DHT22;27377;50.666;9.150;2022-10-14T12:46:48;13.20;99.90
41694;DHT22;27377;50.666;9.150;2022-10-14T12:49:33;13.20;99.90
41694;DHT22;27377;50.666;9.150;2022-10-14T12:52:05;13.30;99.90
41694;DHT22;27377;50.666;9.150;2022-10-14T12:54:33;13.30;99.90
41694;DHT22;27377;50.666;9.150;2022-10-14T12:57:05;13.30;99.90
41694;DHT22;27377;50.666;9.150;2022-10-14T12:59:39;13.30;99.90
41694;DHT22;27377;50.666;9.150;2022-10-14T13:02:31;13.30;99.90
41694;DHT22;27377;50.666;9.150;2022-10-14T13:04:59;13.30;99.90
41694;DHT22;27377;50.666;9.150;2022-10-14T13:09:58;13.30;99.90
41694;DHT22;27377;50.666;9.150;2022-10-14T13:15:02;13.30;99.90
41694;DHT22;27377;50.666;9.150;2022-10-14T13:17:45;13.30;99.90
41694;DHT22;27377;50.666;9.150;2022-10-14T13:23:28;13.30;99.90
41694;DHT22;27377;50.666;9.150;2022-10-14T13:26:07;13.30;99.90
41694;DHT22;27377;50.666;9.150;2022-10-14T13:28:41;13.30;99.90
41694;DHT22;27377;50.666;9.150;2022-10-14T13:31:27;13.30;99.90
41694;DHT22;27377;50.666;9.150;2022-10-14T13:34:06;13.30;99.90
41694;DHT22;27377;50.666;9.150;2022-10-14T13:36:48;13.30;99.90
41694;DHT22;27377;50.666;9.150;2022-10-14T13:39:17;13.30;99.90
41694;DHT22;27377;50.666;9.150;2022-10-14T13:41:43;13.30;99.90
41694;DHT22;27377;50.666;9.150;2022-10-14T13:44:11;13.40;99.90
41694;DHT22;27377;50.666;9.150;2022-10-14T13:46:48;13.40;99.90
41694;DHT22;27377;50.666;9.150;2022-10-14T13:49:19;13.40;99.90
41694;DHT22;27377;50.666;9.150;2022-10-14T13:51:59;13.40;99.90
41694;DHT22;27377;50.666;9.150;2022-10-14T13:54:27;13.40;99.90
41694;DHT22;27377;50.666;9.150;2022-10-14T13:56:57;13.30;99.90
41694;DHT22;27377;50.666;9.150;2022-10-14T13:59:24;13.40;99.90
41694;DHT22;27377;50.666;9.150;2022-10-14T14:01:55;13.40;99.90
41694;DHT22;27377;50.666;9.150;2022-10-14T14:04:30;13.40;99.90
41694;DHT22;27377;50.666;9.150;2022-10-14T14:06:57;13.40;99.90
41694;DHT22;27377;50.666;9.150;2022-10-14T14:09:29;13.30;99.90
41694;DHT22;27377;50.666;9.150;2022-10-14T14:12:02;13.40;99.90
41694;DHT22;27377;50.666;9.150;2022-10-14T14:14:35;13.30;99.90
41694;DHT22;27377;50.666;9.150;2022-10-14T14:17:02;13.30;99.90
41694;DHT22;27377;50.666;9.150;2022-10-14T14:22:17;13.30;99.90
41694;DHT22;27377;50.666;9.150;2022-10-14T14:24:44;13.30;99.90
41694;DHT22;27377;50.666;9.150;2022-10-14T14:27:13;13.30;99.90
41694;DHT22;27377;50.666;9.150;2022-10-14T14:29:41;13.30;99.90
41694;DHT22;27377;50.666;9.150;2022-10-14T14:32:14;13.30;99.90
41694;DHT22;27377;50.666;9.150;2022-10-14T14:34:42;13.30;99.90
41694;DHT22;27377;50.666;9.150;2022-10-14T14:37:28;13.30;99.90
41694;DHT22;27377;50.666;9.150;2022-10-14T14:40:03;13.30;99.90
41694;DHT22;27377;50.666;9.150;2022-10-14T14:42:33;13.30;99.90
41694;DHT22;27377;50.666;9.150;2022-10-14T14:45:13;13.20;99.90
41694;DHT22;27377;50.666;9.150;2022-10-14T14:47:40;13.30;99.90
41694;DHT22;27377;50.666;9.150;2022-10-14T14:50:09;13.20;99.90
41694;DHT22;27377;50.666;9.150;2022-10-14T14:52:36;13.20;99.90
41694;DHT22;27377;50.666;9.150;2022-10-14T14:55:03;13.20;99.90
41694;DHT22;27377;50.666;9.150;2022-10-14T14:57:29;13.20;99.90
41694;DHT22;27377;50.666;9.150;2022-10-14T15:00:01;13.20;99.90
41694;DHT22;27377;50.666;9.150;2022-10-14T15:02:28;13.20;99.90
41694;DHT22;27377;50.666;9.150;2022-10-14T15:05:05;13.20;99.90
41694;DHT22;27377;50.666;9.150;2022-10-14T15:07:31;13.20;99.90
41694;DHT22;27377;50.666;9.150;2022-10-14T15:10:00;13.20;99.90
41694;DHT22;27377;50.666;9.150;2022-10-14T15:12:36;13.20;99.90
41694;DHT22;27377;50.666;9.150;2022-10-14T15:15:30;13.20;99.90
41694;DHT22;27377;50.666;9.150;2022-10-14T15:18:23;13.20;99.90
41694;DHT22;27377;50.666;9.150;2022-10-14T15:20:50;13.20;99.90
41694;DHT22;27377;50.666;9.150;2022-10-14T15:26:23;13.20;99.90
41694;DHT22;27377;50.666;9.150;2022-10-14T15:31:35;13.20;99.90
41694;DHT22;27377;50.666;9.150;2022-10-14T15:34:02;13.20;99.90
41694;DHT22;27377;50.666;9.150;2022-10-14T15:36:31;13.20;99.90
41694;DHT22;27377;50.666;9.150;2022-10-14T15:38:57;13.20;99.90
41694;DHT22;27377;50.666;9.150;2022-10-14T15:41:24;13.20;99.90
41694;DHT22;27377;50.666;9.150;2022-10-14T15:43:50;13.20;99.90
41694;DHT22;27377;50.666;9.150;2022-10-14T15:46:16;13.20;99.90
41694;DHT22;27377;50.666;9.150;2022-10-14T15:49:02;13.20;99.90
41694;DHT22;27377;50.666;9.150;2022-10-14T15:51:29;13.20;99.90
41694;DHT22;27377;50.666;9.150;2022-10-14T15:53:56;13.20;99.90
41694;DHT22;27377;50.666;9.150;2022-10-14T15:56:21;13.20;99.90
41694;DHT22;27377;50.666;9.150;2022-10-14T15:58:47;13.20;99.90
41694;DHT22;27377;50.666;9.150;2022-10-14T16:01:21;13.20;99.90
41694;DHT22;27377;50.666;9.150;2022-10-14T16:03:48;13.20;99.90
41694;DHT22;27377;50.666;9.150;2022-10-14T16:06:14;13.20;99.90
41694;DHT22;27377;50.666;9.150;2022-10-14T16:08:41;13.20;99.90
41694;DHT22;27377;50.666;9.150;2022-10-14T16:11:27;13.20;99.90
41694;DHT22;27377;50.666;9.150;2022-10-14T16:13:53;13.20;99.90
41694;DHT22;27377;50.666;9.150;2022-10-14T16:16:55;13.20;99.90
41694;DHT22;27377;50.666;9.150;2022-10-14T16:19:14;13.20;99.90
41694;DHT22;27377;50.666;9.150;2022-10-14T16:21:39;13.20;99.90
41694;DHT22;27377;50.666;9.150;2022-10-14T16:24:05;13.20;99.90
41694;DHT22;27377;50.666;9.150;2022-10-14T16:26:31;13.20;99.90
41694;DHT22;27377;50.666;9.150;2022-10-14T16:28:57;13.20;99.90
41694;DHT22;27377;50.666;9.150;2022-10-14T16:31:25;13.20;99.90
41694;DHT22;27377;50.666;9.150;2022-10-14T16:33:51;13.20;99.90
41694;DHT22;27377;50.666;9.150;2022-10-14T16:36:19;13.20;99.90
41694;DHT22;27377;50.666;9.150;2022-10-14T16:38:45;13.20;99.90
41694;DHT22;27377;50.666;9.150;2022-10-14T16:41:11;13.20;99.90
41694;DHT22;27377;50.666;9.150;2022-10-14T16:43:36;13.20;99.90
41694;DHT22;27377;50.666;9.150;2022-10-14T16:46:03;13.20;99.90
41694;DHT22;27377;50.666;9.150;2022-10-14T16:48:29;13.20;99.90
41694;DHT22;27377;50.666;9.150;2022-10-14T16:50:55;13.20;99.90
41694;DHT22;27377;50.666;9.150;2022-10-14T16:53:21;13.20;99.90
41694;DHT22;27377;50.666;9.150;2022-10-14T16:56:08;13.20;99.90
41694;DHT22;27377;50.666;9.150;2022-10-14T16:58:55;13.20;99.90
41694;DHT22;27377;50.666;9.150;2022-10-14T17:01:21;13.20;99.90
41694;DHT22;27377;50.666;9.150;2022-10-14T17:03:47;13.20;99.90
41694;DHT22;27377;50.666;9.150;2022-10-14T17:06:13;13.20;99.90
41694;DHT22;27377;50.666;9.150;2022-10-14T17:08:40;13.20;99.90
41694;DHT22;27377;50.666;9.150;2022-10-14T17:11:06;13.20;99.90
41694;DHT22;27377;50.666;9.150;2022-10-14T17:13:32;13.20;99.90
41694;DHT22;27377;50.666;9.150;2022-10-14T17:15:59;13.20;99.90
41694;DHT22;27377;50.666;9.150;2022-10-14T17:18:26;13.20;99.90
41694;DHT22;27377;50.666;9.150;2022-10-14T17:20:59;13.20;99.90